Urb Las Mercedes, Puerto Rico
Current Conditions -  °F | °C
As of 3:50 PM on Tuesday 25 Nov 2014 (Local Time) from TJPS Reporting Station
Light Rain Light Rain  
Wind Chill: 82°   Ceiling: 5000
Heat Index: 89°   Visibility: 8mi
Dew Point: 75°   Wind: 12mph
Humidity: 79%   Direction: 160°SSE
Pressure: 29.97"   Gusts: 17mph
Location:  17.9903°N, 66.2815°W
Report Text: TJPS 251950Z 16010G15KT 8SM -RA SCT020 BKN050 28/24 A2997 RMK RAB45
Loading
Personal Weather Stations






























Interactive Weather Map New forecast layout! Learn more

10-Day Weather Forecast

Advertisements
Track Severe Weather on mobile